Time;durP1;ratioP1;P1;durP2;ratioP2;P2;SDS_P1;SDS_P2;PMS_P1;PMS_P2;Temp;Humidity;BMP_temperature;BMP_pressure;BME280_temperature;BME280_humidity;BME280_pressure;Samples;Min_cycle;Max_cycle;Signal;HPM_P1;HPM_P2
2021/11/26 00:02:04;;;;;;;18.90;5.75;;;;;;;;;;5017126;28;20051;-94
2021/11/26 00:04:30;;;;;;;21.65;7.85;;;;;;;;;;5015429;28;20473;-93
2021/11/26 00:06:56;;;;;;;20.33;8.93;;;;;;;;;;5016910;28;20121;-92
2021/11/26 00:09:22;;;;;;;18.67;7.70;;;;;;;;;;5017249;28;20022;-95
2021/11/26 00:11:48;;;;;;;17.45;5.47;;;;;;;;;;5016377;28;20032;-93
2021/11/26 00:16:44;;;;;;;35.25;10.75;;;;;;;;;;5017198;28;20117;-93
2021/11/26 00:19:10;;;;;;;20.83;8.05;;;;;;;;;;5017027;28;20030;-93
2021/11/26 00:21:39;;;;;;;14.93;7.13;;;;;;;;;;5015019;28;20037;-94
2021/11/26 00:24:06;;;;;;;19.00;6.88;;;;;;;;;;5013448;28;20037;-94
2021/11/26 00:26:32;;;;;;;23.05;8.60;;;;;;;;;;5001158;28;20026;-93
2021/11/26 00:28:58;;;;;;;23.23;7.72;;;;;;;;;;5009554;28;20403;-94
2021/11/26 00:31:24;;;;;;;21.48;8.05;;;;;;;;;;5010246;28;20041;-92
2021/11/26 00:33:50;;;;;;;16.60;7.13;;;;;;;;;;5013484;28;20449;-92
2021/11/26 00:36:16;;;;;;;20.80;7.57;;;;;;;;;;4979414;28;20030;-94
2021/11/26 00:38:42;;;;;;;24.60;7.47;;;;;;;;;;4997622;28;20501;-94
2021/11/26 00:41:09;;;;;;;21.85;8.80;;;;;;;;;;5016263;28;20026;-94
2021/11/26 00:43:35;;;;;;;18.33;6.20;;;;;;;;;;5006084;28;20038;-93
2021/11/26 00:46:01;;;;;;;14.20;5.65;;;;;;;;;;5001615;28;20052;-94
2021/11/26 00:48:27;;;;;;;21.88;7.82;;;;;;;;;;5015928;28;20122;-93
2021/11/26 00:50:53;;;;;;;20.75;8.30;;;;;;;;;;5000331;28;20446;-93
2021/11/26 00:53:19;;;;;;;19.70;6.55;;;;;;;;;;5011561;28;20026;-94
2021/11/26 00:55:45;;;;;;;21.98;7.60;;;;;;;;;;5006907;28;20454;-94
2021/11/26 00:58:11;;;;;;;19.42;7.03;;;;;;;;;;5011137;28;20038;-94
2021/11/26 01:00:37;;;;;;;23.08;7.72;;;;;;;;;;4999983;28;20026;-94
2021/11/26 01:03:05;;;;;;;25.85;7.13;;;;;;;;;;5010940;28;20026;-93
2021/11/26 01:05:32;;;;;;;16.23;7.20;;;;;;;;;;5011638;28;20042;-93
2021/11/26 01:07:58;;;;;;;20.75;8.05;;;;;;;;;;5015810;28;20049;-94
2021/11/26 01:10:25;;;;;;;25.17;8.82;;;5.20;83.30;;;;;;5009442;28;20041;-92
2021/11/26 01:12:51;;;;;;;25.73;8.13;;;;;;;;;;5001396;28;20022;-94
2021/11/26 01:15:22;;;;;;;19.92;7.60;;;5.00;83.70;;;;;;5015024;28;20033;-93
2021/11/26 01:17:48;;;;;;;21.27;7.38;;;;;;;;;;5015297;28;20028;-94
2021/11/26 01:20:18;;;;;;;24.17;8.68;;;5.20;83.40;;;;;;5014193;28;20037;-92
2021/11/26 01:22:45;;;;;;;21.35;6.43;;;;;;;;;;5015113;28;20137;-92
2021/11/26 01:25:12;;;;;;;16.85;7.25;;;5.10;83.00;;;;;;5020665;28;20045;-93
2021/11/26 01:27:38;;;;;;;24.80;6.80;;;;;;;;;;5015175;28;20471;-93
2021/11/26 01:30:11;;;;;;;18.95;8.00;;;;;;;;;;5014253;28;20036;-94
2021/11/26 01:32:37;;;;;;;17.92;5.45;;;;;;;;;;5014505;28;20471;-93
2021/11/26 01:35:03;;;;;;;16.45;7.63;;;;;;;;;;5014532;28;20040;-92
2021/11/26 01:37:29;;;;;;;23.92;7.47;;;;;;;;;;5009567;28;20018;-92
2021/11/26 01:39:55;;;;;;;18.38;7.25;;;;;;;;;;5009629;28;20471;-94
2021/11/26 01:42:22;;;;;;;14.43;6.82;;;;;;;;;;5009692;28;20109;-94
2021/11/26 01:44:48;;;;;;;22.33;7.15;;;;;;;;;;5003739;28;20396;-92
2021/11/26 01:47:14;;;;;;;18.02;7.63;;;5.00;84.70;;;;;;5014668;28;20018;-94
2021/11/26 01:49:40;;;;;;;23.50;8.32;;;;;;;;;;5014328;28;20139;-94
2021/11/26 01:52:06;;;;;;;22.38;7.57;;;;;;;;;;5011312;28;20037;-93
2021/11/26 01:54:32;;;;;;;20.45;7.10;;;;;;;;;;5014736;28;20041;-94
2021/11/26 01:56:58;;;;;;;15.82;7.82;;;;;;;;;;5015175;28;20026;-93
2021/11/26 01:59:25;;;;;;;34.58;10.10;;;;;;;;;;4985327;28;20129;-94
2021/11/26 02:01:51;;;;;;;22.42;8.02;;;;;;;;;;5006772;28;20049;-92
2021/11/26 02:04:17;;;;;;;25.55;8.07;;;;;;;;;;5014694;28;20030;-92
2021/11/26 02:06:43;;;;;;;20.08;8.95;;;;;;;;;;5014686;28;20026;-92
2021/11/26 02:09:09;;;;;;;18.52;7.82;;;;;;;;;;5013423;28;20511;-94
2021/11/26 02:11:35;;;;;;;19.95;8.15;;;;;;;;;;4999454;28;20036;-95
2021/11/26 02:14:01;;;;;;;25.25;9.57;;;;;;;;;;5014418;28;20056;-94
2021/11/26 02:16:27;;;;;;;14.82;7.07;;;;;;;;;;5014346;28;20029;-93
2021/11/26 02:18:53;;;;;;;12.32;5.95;;;;;;;;;;5013990;28;20088;-94
2021/11/26 02:21:21;;;;;;;30.52;9.55;;;5.30;84.30;;;;;;5014553;28;20038;-94
2021/11/26 02:23:48;;;;;;;18.08;7.78;;;;;;;;;;4999150;28;20022;-92
2021/11/26 02:26:14;;;;;;;26.25;9.63;;;;;;;;;;5017754;28;20026;-93
2021/11/26 02:28:41;;;;;;;21.27;7.15;;;5.10;85.10;;;;;;5012868;28;20056;-93
2021/11/26 02:31:08;;;;;;;19.67;7.63;;;;;;;;;;5013983;28;20109;-93
2021/11/26 02:33:34;;;;;;;18.50;7.68;;;;;;;;;;5013522;28;20261;-93
2021/11/26 02:36:00;;;;;;;19.73;8.85;;;;;;;;;;5005590;28;20053;-93
2021/11/26 02:38:28;;;;;;;30.10;7.85;;;;;;;;;;4996477;28;20038;-94
2021/11/26 02:40:55;;;;;;;22.08;7.18;;;;;;;;;;5002478;28;20541;-94
2021/11/26 02:43:22;;;;;;;23.20;6.10;;;;;;;;;;4994115;28;20038;-93
2021/11/26 02:45:48;;;;;;;26.80;7.10;;;;;;;;;;4992914;28;20124;-93
2021/11/26 02:48:15;;;;;;;24.73;7.18;;;;;;;;;;5008569;28;20033;-93
2021/11/26 02:50:43;;;;;;;10.27;6.38;;;5.40;82.10;;;;;;5012443;28;20021;-94
2021/11/26 02:53:10;;;;;;;15.63;8.23;;;;;;;;;;5013616;28;20042;-93
2021/11/26 02:55:36;;;;;;;18.98;6.53;;;;;;;;;;5012196;28;20096;-93
2021/11/26 02:58:04;;;;;;;23.50;7.88;;;;;;;;;;5008992;28;20040;-94
2021/11/26 03:00:30;;;;;;;19.52;6.13;;;;;;;;;;5009541;28;20052;-95
2021/11/26 03:02:57;;;;;;;12.55;5.35;;;5.40;83.20;;;;;;4994031;28;20479;-93
2021/11/26 03:05:25;;;;;;;34.20;8.13;;;;;;;;;;4992030;28;20499;-92
2021/11/26 03:07:51;;;;;;;36.85;6.18;;;;;;;;;;5013807;28;20038;-93
2021/11/26 03:10:19;;;;;;;17.55;7.03;;;;;;;;;;5005825;28;20138;-92
2021/11/26 03:12:50;;;;;;;23.58;8.35;;;;;;;;;;5008880;28;20029;-93
2021/11/26 03:15:17;;;;;;;21.88;8.25;;;5.70;80.10;;;;;;5011479;28;20017;-93
2021/11/26 03:17:43;;;;;;;19.42;7.57;;;;;;;;;;4992300;28;20023;-94
2021/11/26 03:20:09;;;;;;;22.75;7.10;;;;;;;;;;5007316;28;20446;-92
2021/11/26 03:22:35;;;;;;;22.40;6.75;;;;;;;;;;5003959;28;20030;-92
2021/11/26 03:25:02;;;;;;;22.50;8.25;;;;;;;;;;5009336;28;20042;-93
2021/11/26 03:27:28;;;;;;;20.55;7.90;;;;;;;;;;4992795;28;20023;-94
2021/11/26 03:29:54;;;;;;;21.40;9.38;;;;;;;;;;5008627;28;20034;-95
2021/11/26 03:32:20;;;;;;;21.08;7.40;;;;;;;;;;5010512;28;20075;-94
2021/11/26 03:34:46;;;;;;;21.13;6.78;;;;;;;;;;5011943;28;20038;-94
2021/11/26 03:37:12;;;;;;;23.52;6.63;;;;;;;;;;5012732;28;20026;-93
2021/11/26 03:39:38;;;;;;;21.38;7.15;;;;;;;;;;5013225;28;20072;-93
2021/11/26 03:42:04;;;;;;;26.60;9.70;;;;;;;;;;5013081;28;20026;-94
2021/11/26 03:44:31;;;;;;;21.85;6.93;;;;;;;;;;5004166;28;20041;-93
2021/11/26 03:46:57;;;;;;;22.58;6.15;;;;;;;;;;5005343;28;20053;-93
2021/11/26 03:49:23;;;;;;;19.58;6.28;;;;;;;;;;5004985;28;20707;-95
2021/11/26 03:51:49;;;;;;;28.23;8.13;;;;;;;;;;4994459;28;20041;-95
2021/11/26 03:54:15;;;;;;;16.85;5.50;;;;;;;;;;5007771;28;20026;-93
2021/11/26 03:56:41;;;;;;;16.85;5.90;;;;;;;;;;5006858;28;20030;-94
2021/11/26 03:59:07;;;;;;;24.02;9.38;;;;;;;;;;5009125;28;20022;-93
2021/11/26 04:01:36;;;;;;;13.05;6.53;;;;;;;;;;5013139;28;20040;-94
2021/11/26 04:04:02;;;;;;;16.50;6.97;;;;;;;;;;5012886;28;20112;-94
2021/11/26 04:06:28;;;;;;;16.52;6.03;;;;;;;;;;5012138;28;20025;-95
2021/11/26 04:08:54;;;;;;;24.27;9.75;;;;;;;;;;5013405;28;20072;-94
2021/11/26 04:11:20;;;;;;;13.73;5.07;;;;;;;;;;4997814;28;20034;-93
2021/11/26 04:13:46;;;;;;;22.70;5.93;;;;;;;;;;4997607;28;20029;-94
2021/11/26 04:16:13;;;;;;;14.90;6.63;;;;;;;;;;4998418;28;20125;-93
2021/11/26 04:18:43;;;;;;;16.65;6.32;;;;;;;;;;5012019;28;20030;-95
2021/11/26 04:21:09;;;;;;;18.00;6.55;;;;;;;;;;5013302;28;20034;-95
2021/11/26 04:23:36;;;;;;;13.70;5.65;;;;;;;;;;5011886;28;20026;-93
2021/11/26 04:26:02;;;;;;;22.85;7.10;;;;;;;;;;5012422;28;20030;-94
2021/11/26 04:28:28;;;;;;;19.90;8.63;;;;;;;;;;5004710;28;20030;-94
2021/11/26 04:30:54;;;;;;;15.52;6.07;;;;;;;;;;4995080;28;20030;-95
2021/11/26 04:33:20;;;;;;;17.30;7.32;;;;;;;;;;4993154;28;20026;-93
2021/11/26 04:35:47;;;;;;;19.98;5.20;;;;;;;;;;5030560;28;20049;-93
2021/11/26 04:38:14;;;;;;;15.43;5.28;;;;;;;;;;5003501;28;20089;-93
2021/11/26 04:40:39;;;;;;;11.23;4.97;;;;;;;;;;5002713;28;20034;-93
2021/11/26 04:43:05;;;;;;;14.05;4.57;;;;;;;;;;5011477;28;20092;-94
2021/11/26 04:45:31;;;;;;;18.55;6.13;;;;;;;;;;5015476;28;20038;-94
2021/11/26 04:47:58;;;;;;;15.07;5.35;;;;;;;;;;5015438;28;20097;-94
2021/11/26 04:50:23;;;;;;;16.25;6.63;;;;;;;;;;5015802;28;20053;-93
2021/11/26 04:52:49;;;;;;;18.40;5.55;;;;;;;;;;5015969;28;20022;-93
2021/11/26 04:55:16;;;;;;;29.73;6.68;;;;;;;;;;5012782;28;20034;-94
2021/11/26 04:57:42;;;;;;;16.98;6.47;;;;;;;;;;5015613;28;20026;-96
2021/11/26 05:00:09;;;;;;;16.27;9.73;;;;;;;;;;4996313;28;20406;-93
2021/11/26 05:02:35;;;;;;;19.13;5.43;;;;;;;;;;5013136;28;20029;-93
2021/11/26 05:05:01;;;;;;;13.60;6.65;;;;;;;;;;5015673;28;20037;-95
2021/11/26 05:07:27;;;;;;;12.68;6.05;;;;;;;;;;5007315;28;20030;-92
2021/11/26 05:09:53;;;;;;;11.52;5.93;;;;;;;;;;4999793;28;20030;-94
2021/11/26 05:12:20;;;;;;;16.60;6.13;;;;;;;;;;5015878;28;20503;-93
2021/11/26 05:14:46;;;;;;;5.28;2.90;;;;;;;;;;5017648;28;20018;-93
2021/11/26 05:17:12;;;;;;;18.40;6.28;;;;;;;;;;5001681;28;20034;-94
2021/11/26 05:19:38;;;;;;;17.92;5.72;;;;;;;;;;5020477;28;20108;-94
2021/11/26 05:22:04;;;;;;;18.88;5.93;;;;;;;;;;5012858;28;20117;-93
2021/11/26 05:24:30;;;;;;;16.65;5.95;;;;;;;;;;5015613;28;20065;-94
2021/11/26 05:26:56;;;;;;;16.08;5.32;;;;;;;;;;4996816;28;20045;-93
2021/11/26 05:29:22;;;;;;;17.60;5.75;;;;;;;;;;4994738;28;20066;-95
2021/11/26 05:31:48;;;;;;;18.40;5.57;;;;;;;;;;5005897;28;20029;-95
2021/11/26 05:34:14;;;;;;;23.35;8.85;;;;;;;;;;5013566;28;20025;-94
2021/11/26 05:36:40;;;;;;;20.33;7.13;;;;;;;;;;5015545;28;20029;-95
2021/11/26 05:39:07;;;;;;;20.88;8.32;;;;;;;;;;4995609;28;20026;-94
2021/11/26 05:41:33;;;;;;;20.45;8.25;;;;;;;;;;5013209;28;20044;-94
2021/11/26 05:43:59;;;;;;;26.17;7.38;;;;;;;;;;5013458;28;20119;-95
2021/11/26 05:46:26;;;;;;;14.57;8.52;;;;;;;;;;5014590;28;20026;-93
2021/11/26 05:48:52;;;;;;;17.90;7.95;;;;;;;;;;5013846;28;20064;-93
2021/11/26 05:51:18;;;;;;;17.52;5.82;;;;;;;;;;5015135;28;20030;-94
2021/11/26 05:53:45;;;;;;;19.45;7.55;;;;;;;;;;4995414;28;20034;-92
2021/11/26 05:56:11;;;;;;;19.60;6.22;;;;;;;;;;5007973;28;20038;-94
2021/11/26 05:58:37;;;;;;;16.08;5.70;;;;;;;;;;5013876;28;20030;-95
2021/11/26 06:01:03;;;;;;;19.42;7.90;;;;;;;;;;5013522;28;20029;-94
2021/11/26 06:03:29;;;;;;;17.55;7.43;;;;;;;;;;5000487;28;20126;-94
2021/11/26 06:05:55;;;;;;;18.15;7.03;;;;;;;;;;4998602;28;20069;-93
2021/11/26 06:08:21;;;;;;;19.83;7.95;;;;;;;;;;5016246;28;20459;-95
2021/11/26 06:10:47;;;;;;;19.48;6.65;;;;;;;;;;5021957;28;20072;-91
2021/11/26 06:13:13;;;;;;;22.20;7.38;;;;;;;;;;5009027;28;20147;-93
2021/11/26 06:15:39;;;;;;;24.15;8.90;;;;;;;;;;5011000;28;20117;-93
2021/11/26 06:18:05;;;;;;;17.63;6.65;;;;;;;;;;5012566;28;20022;-92
2021/11/26 06:20:31;;;;;;;18.02;8.52;;;;;;;;;;5005225;28;20069;-92
2021/11/26 06:22:57;;;;;;;18.23;6.35;;;;;;;;;;4998327;28;20050;-91
2021/11/26 06:25:24;;;;;;;23.23;6.60;;;;;;;;;;5011105;28;20478;-92
2021/11/26 06:27:50;;;;;;;15.73;6.85;;;;;;;;;;5012266;28;20034;-92
2021/11/26 06:30:18;;;;;;;19.30;6.65;;;;;;;;;;5012316;28;20029;-93
2021/11/26 06:32:45;;;;;;;19.17;5.70;;;5.70;77.20;;;;;;5010110;28;20029;-92
2021/11/26 06:35:13;;;;;;;15.88;6.53;;;;;;;;;;4994161;28;20123;-92
2021/11/26 06:37:39;;;;;;;19.08;7.47;;;;;;;;;;5000309;28;20467;-93
2021/11/26 06:40:06;;;;;;;17.65;6.20;;;;;;;;;;5011371;28;20030;-91
2021/11/26 06:42:32;;;;;;;12.15;6.60;;;;;;;;;;4999423;28;20531;-90
2021/11/26 06:44:58;;;;;;;21.75;7.45;;;;;;;;;;5011179;28;20125;-94
2021/11/26 06:47:24;;;;;;;14.70;6.60;;;;;;;;;;5007638;28;20042;-89
2021/11/26 06:49:50;;;;;;;14.57;5.95;;;;;;;;;;5009381;28;20070;-90
2021/11/26 06:52:16;;;;;;;15.77;5.90;;;;;;;;;;5010827;28;20021;-94
2021/11/26 06:54:43;;;;;;;28.50;8.10;;;;;;;;;;5011999;28;20030;-94
2021/11/26 06:57:09;;;;;;;11.70;4.38;;;;;;;;;;5013110;28;20057;-94
2021/11/26 06:59:35;;;;;;;13.43;5.85;;;;;;;;;;5011801;28;20044;-94
2021/11/26 07:02:01;;;;;;;18.38;5.63;;;;;;;;;;5011883;28;20034;-93
2021/11/26 07:04:28;;;;;;;12.55;7.40;;;;;;;;;;5012704;28;20030;-93
2021/11/26 07:06:55;;;;;;;13.25;6.38;;;;;;;;;;5019165;28;20422;-93
2021/11/26 07:09:20;;;;;;;13.77;5.25;;;;;;;;;;5011044;28;20088;-92
2021/11/26 07:11:47;;;;;;;12.13;6.18;;;;;;;;;;5008684;28;20060;-93
2021/11/26 07:14:13;;;;;;;16.65;5.93;;;;;;;;;;5008767;28;20053;-93
2021/11/26 07:16:39;;;;;;;19.92;6.53;;;;;;;;;;5010460;28;20054;-94
2021/11/26 07:19:05;;;;;;;20.70;6.07;;;;;;;;;;4992638;28;20038;-94
2021/11/26 07:21:31;;;;;;;18.00;6.43;;;;;;;;;;4992733;28;20045;-93
2021/11/26 07:23:57;;;;;;;17.60;6.40;;;;;;;;;;5011350;28;20487;-92
2021/11/26 07:26:24;;;;;;;13.73;7.72;;;;;;;;;;5004679;28;20108;-92
2021/11/26 07:28:50;;;;;;;21.75;8.13;;;;;;;;;;5002352;28;20032;-91
2021/11/26 07:31:16;;;;;;;18.52;6.47;;;;;;;;;;5006470;28;20454;-91
2021/11/26 07:33:43;;;;;;;24.27;9.40;;;;;;;;;;5008903;28;20026;-92
2021/11/26 07:36:09;;;;;;;17.90;8.27;;;;;;;;;;5018299;28;20037;-92
2021/11/26 07:38:36;;;;;;;32.78;7.50;;;;;;;;;;5013639;28;20689;-92
2021/11/26 07:41:02;;;;;;;15.88;6.47;;;;;;;;;;5008167;28;20410;-93
2021/11/26 07:43:28;;;;;;;16.95;7.70;;;;;;;;;;5014528;28;20103;-92
2021/11/26 07:45:54;;;;;;;19.15;7.63;;;;;;;;;;5020542;28;20034;-90
2021/11/26 07:48:20;;;;;;;14.85;6.20;;;;;;;;;;5019086;28;20030;-90
2021/11/26 07:50:46;;;;;;;17.45;7.07;;;;;;;;;;5006005;28;20062;-94
2021/11/26 07:53:12;;;;;;;15.75;6.50;;;;;;;;;;5016006;28;20105;-92
2021/11/26 07:55:38;;;;;;;23.55;7.90;;;;;;;;;;5012784;28;20125;-92
2021/11/26 07:58:06;;;;;;;22.13;7.70;;;;;;;;;;5011822;28;20410;-94
2021/11/26 08:00:32;;;;;;;17.08;6.18;;;;;;;;;;5009173;28;20101;-94
2021/11/26 08:03:01;;;;;;;13.57;6.53;;;;;;;;;;5007868;28;20029;-93
2021/11/26 08:05:27;;;;;;;25.10;8.48;;;;;;;;;;5015186;28;20037;-96
2021/11/26 08:07:53;;;;;;;26.33;6.97;;;;;;;;;;5015724;28;20026;-91
2021/11/26 08:10:19;;;;;;;20.02;8.68;;;;;;;;;;4993179;28;20042;-90
2021/11/26 08:12:45;;;;;;;14.25;6.85;;;;;;;;;;5012809;28;20650;-91
2021/11/26 08:15:13;;;;;;;13.00;7.70;;;;;;;;;;5015334;28;20491;-92
2021/11/26 08:17:39;;;;;;;9.82;5.47;;;;;;;;;;5003967;28;20092;-92
2021/11/26 08:20:05;;;;;;;14.02;6.43;;;;;;;;;;5012517;28;20060;-91
2021/11/26 08:22:32;;;;;;;18.30;6.72;;;;;;;;;;5016124;28;20028;-93
2021/11/26 08:24:58;;;;;;;17.88;8.07;;;;;;;;;;5014256;28;20081;-93
2021/11/26 08:27:24;;;;;;;12.85;5.93;;;;;;;;;;5018633;28;20022;-91
2021/11/26 08:29:50;;;;;;;13.93;4.20;;;;;;;;;;5013107;28;20033;-91
2021/11/26 08:32:16;;;;;;;16.75;6.53;;;;;;;;;;5018908;28;20028;-90
2021/11/26 08:34:42;;;;;;;17.85;6.63;;;;;;;;;;5011709;28;20108;-90
2021/11/26 08:37:08;;;;;;;13.95;6.20;;;;;;;;;;5016087;28;20054;-90
2021/11/26 08:39:34;;;;;;;16.13;5.68;;;;;;;;;;5011046;28;20406;-91
2021/11/26 08:42:00;;;;;;;25.98;7.70;;;;;;;;;;5013795;28;20026;-91
2021/11/26 08:44:26;;;;;;;25.58;7.68;;;;;;;;;;5014888;28;20050;-92
2021/11/26 08:46:52;;;;;;;25.25;7.80;;;;;;;;;;5016015;28;20706;-89
2021/11/26 08:49:18;;;;;;;16.38;5.20;;;;;;;;;;5003712;28;20050;-92
2021/11/26 08:51:45;;;;;;;12.10;6.85;;;;;;;;;;5005772;28;20025;-90
2021/11/26 08:54:12;;;;;;;19.92;8.20;;;;;;;;;;5023612;28;20034;-90
2021/11/26 08:56:38;;;;;;;23.70;7.63;;;;;;;;;;5018746;28;20030;-91
2021/11/26 08:59:04;;;;;;;11.77;5.68;;;;;;;;;;5019886;28;20461;-93
2021/11/26 09:01:34;;;;;;;17.30;7.00;;;6.20;79.30;;;;;;5014846;28;20053;-93
2021/11/26 09:04:00;;;;;;;18.35;7.10;;;;;;;;;;5005317;28;20030;-90
2021/11/26 09:06:26;;;;;;;12.23;5.28;;;;;;;;;;5018039;28;20026;-95
2021/11/26 09:08:53;;;;;;;16.83;6.65;;;;;;;;;;5014854;28;20490;-93
2021/11/26 09:11:19;;;;;;;20.00;6.07;;;;;;;;;;5021481;28;20025;-94
2021/11/26 09:13:45;;;;;;;16.30;6.53;;;;;;;;;;5026391;28;21518;-95
2021/11/26 09:16:11;;;;;;;22.15;6.45;;;;;;;;;;5026620;28;20038;-90
2021/11/26 09:18:37;;;;;;;22.55;7.43;;;;;;;;;;5021413;28;20044;-95
2021/11/26 09:21:04;;;;;;;18.27;7.05;;;;;;;;;;5016304;28;20182;-95
2021/11/26 09:23:30;;;;;;;21.73;7.28;;;;;;;;;;5028319;28;20025;-94
2021/11/26 09:25:56;;;;;;;14.13;5.00;;;;;;;;;;5011820;28;20121;-86
2021/11/26 09:28:22;;;;;;;10.50;4.55;;;;;;;;;;4990345;28;20022;-86
2021/11/26 09:30:49;;;;;;;12.93;6.68;;;;;;;;;;5009226;28;20037;-88
2021/11/26 09:33:16;;;;;;;16.42;7.03;;;;;;;;;;5008777;28;20438;-86
2021/11/26 09:35:42;;;;;;;15.25;6.65;;;;;;;;;;5005597;28;20030;-85
2021/11/26 09:38:08;;;;;;;13.82;5.15;;;;;;;;;;5008018;28;20125;-87
2021/11/26 09:40:34;;;;;;;13.77;7.30;;;;;;;;;;5004597;28;20029;-87
2021/11/26 09:43:01;;;;;;;16.65;6.07;;;;;;;;;;5000779;28;20128;-89
2021/11/26 09:45:29;;;;;;;10.77;5.85;;;;;;;;;;5015288;28;20033;-86
2021/11/26 09:47:55;;;;;;;8.90;3.85;;;;;;;;;;5003832;28;21394;-85
2021/11/26 09:50:22;;;;;;;14.73;5.43;;;;;;;;;;4997398;28;20073;-86
2021/11/26 09:52:48;;;;;;;9.65;5.03;;;;;;;;;;5005308;28;20298;-86
2021/11/26 09:55:17;;;;;;;11.70;4.35;;;;;;;;;;5008967;28;20044;-87
2021/11/26 09:57:43;;;;;;;9.27;4.05;;;;;;;;;;5004364;28;20113;-88
2021/11/26 10:00:11;;;;;;;5.45;3.40;;;;;;;;;;5008792;28;20514;-88
2021/11/26 10:02:37;;;;;;;12.55;3.75;;;;;;;;;;5007585;28;20041;-88
2021/11/26 10:05:05;;;;;;;10.30;3.47;;;;;;;;;;5004329;28;20811;-87
2021/11/26 10:07:31;;;;;;;7.35;2.80;;;;;;;;;;5005261;28;20026;-86
2021/11/26 10:10:10;;;;;;;5.22;4.05;;;;;;;;;;5007463;28;20087;-87
2021/11/26 10:12:36;;;;;;;7.00;3.67;;;;;;;;;;5008417;28;20506;-87
2021/11/26 10:15:02;;;;;;;7.18;4.15;;;;;;;;;;5002156;28;20522;-86
2021/11/26 10:17:28;;;;;;;8.05;3.30;;;;;;;;;;5024196;28;20032;-90
2021/11/26 10:19:59;;;;;;;3.47;2.72;;;;;;;;;;5011489;28;20044;-89
2021/11/26 10:22:25;;;;;;;6.93;3.53;;;;;;;;;;5011682;28;20061;-86
2021/11/26 10:25:09;;;;;;;7.13;3.35;;;;;;;;;;5006153;28;20033;-87
2021/11/26 10:27:44;;;;;;;10.90;3.35;;;;;;;;;;5003401;28;20030;-89
2021/11/26 10:30:10;;;;;;;7.45;2.47;;;;;;;;;;4997932;28;20029;-87
2021/11/26 10:32:36;;;;;;;6.03;2.70;;;;;;;;;;5012606;28;20114;-87
2021/11/26 10:35:03;;;;;;;4.47;1.73;;;;;;;;;;5009472;28;20027;-88
2021/11/26 10:37:29;;;;;;;7.77;1.90;;;;;;;;;;5008003;28;20045;-87
2021/11/26 10:39:55;;;;;;;5.88;2.70;;;;;;;;;;5004257;28;20034;-87
2021/11/26 10:42:25;;;;;;;9.52;3.03;;;;;;;;;;5013128;28;20113;-89
2021/11/26 10:45:04;;;;;;;10.15;3.80;;;7.80;72.20;;;;;;5008904;28;20050;-88
2021/11/26 10:47:48;;;;;;;9.52;3.13;;;;;;;;;;5022703;28;20057;-89
2021/11/26 10:58:39;;;;;;;9.32;2.70;;;;;;;;;;5010108;28;20041;-89
2021/11/26 11:01:12;;;;;;;9.15;3.30;;;;;;;;;;5003803;28;20034;-88
2021/11/26 11:03:38;;;;;;;10.05;4.80;;;;;;;;;;5016242;28;20021;-89
2021/11/26 11:06:19;;;;;;;10.07;4.80;;;7.40;75.20;;;;;;5009875;28;20041;-89
2021/11/26 11:08:45;;;;;;;10.90;3.97;;;;;;;;;;5018014;28;20033;-88
2021/11/26 11:11:11;;;;;;;7.97;3.83;;;;;;;;;;5008774;28;20526;-88
2021/11/26 11:13:37;;;;;;;12.98;4.43;;;;;;;;;;4993166;28;20022;-87
2021/11/26 11:16:05;;;;;;;6.43;2.80;;;;;;;;;;5012722;28;20045;-87
2021/11/26 11:18:31;;;;;;;9.50;3.28;;;;;;;;;;5024192;28;20079;-87
2021/11/26 11:20:57;;;;;;;7.28;5.32;;;;;;;;;;5001655;28;20046;-88
2021/11/26 11:23:23;;;;;;;7.68;3.03;;;;;;;;;;5007725;28;20108;-88
2021/11/26 11:25:49;;;;;;;4.55;2.13;;;;;;;;;;5002335;28;20133;-88
2021/11/26 11:28:15;;;;;;;12.93;3.83;;;;;;;;;;5004831;28;20032;-87
2021/11/26 11:30:41;;;;;;;8.35;2.45;;;;;;;;;;5005966;28;20033;-87
2021/11/26 11:33:08;;;;;;;13.40;5.07;;;;;;;;;;5005051;28;20026;-89
2021/11/26 11:35:37;;;;;;;6.00;3.30;;;;;;;;;;5007848;28;20113;-88
2021/11/26 11:38:03;;;;;;;9.20;3.03;;;;;;;;;;5006533;28;20038;-87
2021/11/26 11:40:31;;;;;;;8.55;4.63;;;;;;;;;;5008886;28;21035;-89
2021/11/26 11:43:08;;;;;;;7.90;5.18;;;;;;;;;;5018539;28;20500;-87
2021/11/26 11:45:34;;;;;;;7.68;3.20;;;;;;;;;;5005941;28;20450;-88
2021/11/26 11:48:03;;;;;;;10.90;3.53;;;;;;;;;;5010004;28;20034;-88
2021/11/26 11:50:33;;;;;;;5.05;2.47;;;;;;;;;;4997260;28;20057;-88
2021/11/26 11:53:00;;;;;;;11.32;5.95;;;;;;;;;;5004599;28;20376;-87
2021/11/26 11:55:28;;;;;;;7.45;4.50;;;;;;;;;;5006252;28;20037;-87
2021/11/26 11:57:57;;;;;;;10.80;4.47;;;;;;;;;;5006710;28;20027;-89
2021/11/26 12:00:28;;;;;;;17.20;7.43;;;7.60;76.70;;;;;;5011027;28;20084;-88
2021/11/26 12:03:07;;;;;;;15.48;4.85;;;7.40;77.20;;;;;;5005082;28;20490;-90
2021/11/26 12:05:33;;;;;;;18.23;4.90;;;;;;;;;;5013171;28;20076;-87
2021/11/26 12:08:03;;;;;;;13.90;5.30;;;;;;;;;;5010654;28;20018;-87
2021/11/26 12:10:29;;;;;;;17.00;8.68;;;;;;;;;;5004619;28;20025;-88
2021/11/26 12:12:56;;;;;;;17.25;5.47;;;;;;;;;;4997843;28;20033;-88
2021/11/26 12:15:33;;;;;;;13.68;4.88;;;;;;;;;;5008598;28;20053;-89
2021/11/26 12:18:04;;;;;;;10.68;3.60;;;;;;;;;;5010915;28;20029;-87
2021/11/26 12:20:30;;;;;;;16.05;4.55;;;;;;;;;;5014019;28;20056;-89
2021/11/26 12:22:59;;;;;;;18.38;6.05;;;;;;;;;;5010329;28;20034;-89
2021/11/26 12:25:48;;;;;;;15.38;5.18;;;;;;;;;;5008096;28;20046;-87
2021/11/26 12:28:36;;;;;;;15.38;5.38;;;;;;;;;;4993839;28;20124;-89
2021/11/26 12:31:06;;;;;;;15.60;5.80;;;;;;;;;;5000013;28;20042;-88
2021/11/26 12:33:33;;;;;;;12.45;4.57;;;;;;;;;;5008785;28;20034;-86
2021/11/26 12:36:00;;;;;;;14.35;5.22;;;;;;;;;;5007913;28;20097;-87
2021/11/26 12:38:55;;;;;;;15.27;4.90;;;;;;;;;;5009632;28;20026;-85
2021/11/26 12:41:32;;;;;;;19.77;4.85;;;;;;;;;;4997049;28;20034;-86
2021/11/26 12:43:58;;;;;;;13.20;5.47;;;;;;;;;;5006852;28;20072;-87
2021/11/26 12:46:28;;;;;;;11.85;4.60;;;;;;;;;;5014145;28;20073;-88
2021/11/26 12:51:52;;;;;;;8.57;4.38;;;;;;;;;;5005057;28;20026;-86
2021/11/26 12:54:30;;;;;;;9.00;4.22;;;7.10;81.80;;;;;;5014352;28;20123;-88
2021/11/26 12:56:57;;;;;;;10.75;5.15;;;;;;;;;;5017720;28;20026;-89
2021/11/26 12:59:31;;;;;;;9.52;4.35;;;;;;;;;;5006653;28;20038;-88
2021/11/26 13:01:57;;;;;;;8.68;4.32;;;;;;;;;;5014586;28;20079;-88
2021/11/26 13:04:23;;;;;;;8.80;4.13;;;;;;;;;;5006930;28;20026;-89
2021/11/26 13:06:49;;;;;;;10.27;4.82;;;;;;;;;;5011569;28;20040;-88
2021/11/26 13:09:15;;;;;;;11.10;5.07;;;;;;;;;;5017546;28;20021;-87
2021/11/26 13:11:43;;;;;;;9.27;5.03;;;;;;;;;;5012500;28;20087;-92
2021/11/26 13:14:09;;;;;;;9.85;4.72;;;;;;;;;;5010204;28;20108;-91
2021/11/26 13:16:36;;;;;;;7.18;3.63;;;;;;;;;;5015486;28;20029;-91
2021/11/26 13:19:03;;;;;;;8.77;4.03;;;;;;;;;;5015777;28;20047;-90
2021/11/26 13:21:29;;;;;;;7.90;4.03;;;;;;;;;;5014076;28;20053;-87
2021/11/26 13:23:55;;;;;;;13.38;4.68;;;;;;;;;;5007904;28;20038;-86
2021/11/26 13:26:26;;;;;;;14.93;5.20;;;;;;;;;;5014322;28;20038;-94
2021/11/26 13:28:54;;;;;;;7.18;4.20;;;;;;;;;;5014465;28;20034;-96
2021/11/26 13:31:25;;;;;;;13.60;5.32;;;;;;;;;;5035233;28;20037;-94
2021/11/26 13:33:52;;;;;;;8.82;4.40;;;7.80;77.10;;;;;;5016370;28;20042;-96
2021/11/26 13:36:19;;;;;;;8.65;4.38;;;;;;;;;;4993505;28;20014;-95
2021/11/26 13:38:52;;;;;;;16.13;4.93;;;7.80;77.30;;;;;;5023854;28;20026;-95
2021/11/26 13:41:21;;;;;;;9.70;4.25;;;;;;;;;;5020231;28;20143;-94
2021/11/26 13:43:53;;;;;;;8.80;4.15;;;7.60;77.40;;;;;;5019774;28;20041;-95
2021/11/26 13:46:22;;;;;;;8.43;3.28;;;;;;;;;;5022841;28;20081;-94
2021/11/26 13:48:50;;;;;;;7.00;3.85;;;;;;;;;;5016223;28;20122;-95
2021/11/26 13:51:19;;;;;;;6.05;3.15;;;7.70;77.30;;;;;;4978222;28;20030;-94
2021/11/26 13:53:48;;;;;;;8.75;3.40;;;7.60;77.30;;;;;;4987800;28;20037;-94
2021/11/26 13:56:15;;;;;;;9.70;4.40;;;;;;;;;;4976539;28;20106;-90
2021/11/26 13:58:57;;;;;;;9.48;3.95;;;;;;;;;;5011358;28;20058;-96
2021/11/26 14:01:31;;;;;;;8.88;4.70;;;;;;;;;;4991642;28;20011;-96
2021/11/26 14:04:06;;;;;;;7.65;2.85;;;7.30;78.10;;;;;;5035778;28;20057;-95
2021/11/26 14:06:32;;;;;;;9.65;4.93;;;7.40;78.20;;;;;;4985552;28;20050;-95
2021/11/26 14:09:03;;;;;;;7.18;4.07;;;7.40;78.40;;;;;;4997148;28;20031;-93
2021/11/26 14:11:33;;;;;;;11.90;4.05;;;7.40;78.40;;;;;;4972914;28;20031;-96
2021/11/26 14:14:00;;;;;;;8.10;4.38;;;;;;;;;;5007965;28;20054;-94
2021/11/26 14:16:26;;;;;;;;;;;7.40;77.70;;;;;;5023086;28;20035;-93
2021/11/26 14:18:53;;;;;;;12.25;3.08;;;;;;;;;;4995200;28;19965;-94
2021/11/26 14:21:20;;;;;;;7.97;3.50;;;;;;;;;;4975428;28;20046;-93
2021/11/26 14:23:57;;;;;;;7.63;4.93;;;7.30;78.30;;;;;;4974464;28;20042;-94
2021/11/26 14:26:23;;;;;;;;;;;7.40;78.20;;;;;;4995258;28;20038;-95
2021/11/26 14:28:50;;;;;;;8.18;3.35;;;;;;;;;;4975949;28;19910;-96
2021/11/26 14:31:16;;;;;;;7.55;4.03;;;;;;;;;;4983131;28;20053;-95
2021/11/26 14:33:42;;;;;;;5.47;3.53;;;;;;;;;;5000321;28;20022;-95
2021/11/26 14:36:10;;;;;;;5.00;3.17;;;;;;;;;;5002625;28;20022;-95
2021/11/26 14:38:46;;;;;;;4.60;3.10;;;;;;;;;;4967857;28;20023;-96